Centerville, Maine
Current Conditions -  °F | °C
As of 3:55 PM on Thursday 27 Nov 2014 (Local Time) from KBHB Reporting Station
Overcast Overcast  
Wind Chill: 23°   Ceiling: 3000
Heat Index: 30°   Visibility: 10mi
Dew Point: 28°   Wind: 8mph
Humidity: 93%   Direction: 340°NNW
Pressure: 29.96"   Gusts: NA
Location:  44.7099°N, 67.7366°W
Report Text: KBHB 272055Z AUTO 34007KT 10SM OVC030 M01/M02 A2996 RMK AO1 52034
Loading
Personal Weather Stations






























Interactive Weather Map New forecast layout! Learn more

10-Day Weather Forecast

Advertisements
Track Severe Weather on mobile